KVCT - Victoria Rgnl, TX, US

Issued at 1135 UTC 16 Jul 2019
Updated at 1200 UTC 16 Jul 2019
Potential Impact None Slight Moderate High
Time1151Z 16/12Z 16/13Z 16/14Z 16/15Z 16/16Z 16/17Z 16/18Z 16/19Z 16/20Z 16/21Z 16/22Z 16/23Z 17/00Z>>
Type OBS PRVL
  [TEMP]  
PRVL PRVL PRVL
  [TEMP]  
PRVL
  [TEMP]  
PRVL PRVL PRVL PRVL PRVL PRVL PRVL PRVL
VIS 3 >6
  [5]  
>6 >6 >6 >6 >6 >6 >6 >6 >6 >6 >6 >6
CIG 15 25
  [9]  
25 25 --
  [30]  
--
  [30]  
-- -- -- -- -- -- -- --
Cover OVC OVC
  [BKN]  
OVC OVC SCT
  [BKN]  
SCT
  [BKN]  
SCT SCT SCT SCT SCT SCT SCT SCT
FltCat MVFR MVFR
  [IFR]  
MVFR MVFR VFR
  [MVFR]  
VFR
  [MVFR]  
VFR VFR VFR VFR VFR VFR VFR VFR
WX BR --
  [BR]  
-- -- --
  [--]  
--
  [--]  
-- -- -- -- -- -- -- --
WDir 100 80
[80]
80 80 170
[170]
170
[170]
170 170 170 170 160 160 160 160
WSpd 3 3
  [3]  
3 3 10
  [10]  
10
  [10]  
10 10 10 10 15 15 15 15
WGst -- --
  [--]  
-- -- 15
  [15]  
15
  [15]  
15 15 15 15 20 20 20 20
Raw TAF
KVCT 161135Z 1612/1712 08003KT P6SM OVC025
  TEMPO 1612/1613 5SM BR BKN009
  FM161500 17010G15KT P6SM SCT030
  TEMPO 1615/1617 BKN030
  FM162100 16015G20KT P6SM SCT040
  FM170300 16008KT P6SM SCT025 BKN250
  TEMPO 1706/1708 BKN025
  FM170800 16004KT P6SM BKN020


Raw METAR
KVCT 161151Z 10003KT 3SM BR BKN015 OVC021 26/24 A2999 RMK AO2 SLP152 T02560244 10261 20250 53013
KVCT 161051Z AUTO 08003KT 5SM BR OVC024 25/24 A2997 RMK AO2 SLP147 T02500239
KVCT 160951Z AUTO 00000KT 4SM BR FEW016 OVC024 25/24 A2996 RMK AO2 SLP142 T02500239
KVCT 160851Z AUTO 00000KT 9SM BKN023 26/24 A2995 RMK AO2 SLP138 T02560244 56003

METAR Board
Radar Display
Forecast Discussion
For situational awareness. Not to be used for flight planning purposes.